sensor_id;sensor_type;location;lat;lon;timestamp;P1;durP1;ratioP1;P2;durP2;ratioP2
38865;SDS011;62686;48.984;8.394;2023-04-06T00:00:52;11.27;;;7.60;;
38865;SDS011;62686;48.984;8.394;2023-04-06T00:03:20;9.50;;;7.73;;
38865;SDS011;62686;48.984;8.394;2023-04-06T00:05:48;10.73;;;8.27;;
38865;SDS011;62686;48.984;8.394;2023-04-06T00:08:17;10.20;;;8.07;;
38865;SDS011;62686;48.984;8.394;2023-04-06T00:10:47;11.13;;;7.57;;
38865;SDS011;62686;48.984;8.394;2023-04-06T00:13:16;10.13;;;7.77;;
38865;SDS011;62686;48.984;8.394;2023-04-06T00:15:44;11.90;;;7.80;;
38865;SDS011;62686;48.984;8.394;2023-04-06T00:18:14;9.73;;;7.97;;
38865;SDS011;62686;48.984;8.394;2023-04-06T00:20:42;11.40;;;7.77;;
38865;SDS011;62686;48.984;8.394;2023-04-06T00:23:10;10.37;;;8.00;;
38865;SDS011;62686;48.984;8.394;2023-04-06T00:25:39;11.67;;;7.57;;
38865;SDS011;62686;48.984;8.394;2023-04-06T00:28:07;8.93;;;6.97;;
38865;SDS011;62686;48.984;8.394;2023-04-06T00:30:35;10.73;;;7.60;;
38865;SDS011;62686;48.984;8.394;2023-04-06T00:33:04;11.43;;;7.63;;
38865;SDS011;62686;48.984;8.394;2023-04-06T00:35:34;12.93;;;8.90;;
38865;SDS011;62686;48.984;8.394;2023-04-06T00:38:02;10.87;;;8.03;;
38865;SDS011;62686;48.984;8.394;2023-04-06T00:40:31;11.67;;;7.73;;
38865;SDS011;62686;48.984;8.394;2023-04-06T00:43:01;10.67;;;7.90;;
38865;SDS011;62686;48.984;8.394;2023-04-06T00:45:29;12.67;;;8.20;;
38865;SDS011;62686;48.984;8.394;2023-04-06T00:47:57;13.97;;;8.50;;
38865;SDS011;62686;48.984;8.394;2023-04-06T00:50:26;11.13;;;7.67;;
38865;SDS011;62686;48.984;8.394;2023-04-06T00:52:55;12.23;;;8.30;;
38865;SDS011;62686;48.984;8.394;2023-04-06T00:55:24;12.33;;;8.00;;
38865;SDS011;62686;48.984;8.394;2023-04-06T00:57:52;13.10;;;8.33;;
38865;SDS011;62686;48.984;8.394;2023-04-06T01:00:21;10.70;;;7.90;;
38865;SDS011;62686;48.984;8.394;2023-04-06T01:02:49;8.87;;;7.43;;
38865;SDS011;62686;48.984;8.394;2023-04-06T01:05:17;10.23;;;7.50;;
38865;SDS011;62686;48.984;8.394;2023-04-06T01:07:46;11.93;;;7.80;;
38865;SDS011;62686;48.984;8.394;2023-04-06T01:10:23;12.97;;;8.07;;
38865;SDS011;62686;48.984;8.394;2023-04-06T01:12:53;12.83;;;6.97;;
38865;SDS011;62686;48.984;8.394;2023-04-06T01:15:21;9.63;;;7.57;;
38865;SDS011;62686;48.984;8.394;2023-04-06T01:17:49;11.17;;;7.53;;
38865;SDS011;62686;48.984;8.394;2023-04-06T01:20:18;9.87;;;7.03;;
38865;SDS011;62686;48.984;8.394;2023-04-06T01:22:48;9.53;;;7.07;;
38865;SDS011;62686;48.984;8.394;2023-04-06T01:25:16;15.20;;;7.00;;
38865;SDS011;62686;48.984;8.394;2023-04-06T01:27:45;9.03;;;6.80;;
38865;SDS011;62686;48.984;8.394;2023-04-06T01:30:13;12.43;;;7.20;;
38865;SDS011;62686;48.984;8.394;2023-04-06T01:32:43;11.53;;;7.17;;
38865;SDS011;62686;48.984;8.394;2023-04-06T01:35:12;9.70;;;7.20;;
38865;SDS011;62686;48.984;8.394;2023-04-06T01:37:40;11.23;;;8.07;;
38865;SDS011;62686;48.984;8.394;2023-04-06T01:40:10;10.53;;;7.13;;
38865;SDS011;62686;48.984;8.394;2023-04-06T01:42:40;9.87;;;7.53;;
38865;SDS011;62686;48.984;8.394;2023-04-06T01:45:09;8.57;;;6.73;;
38865;SDS011;62686;48.984;8.394;2023-04-06T01:47:37;9.70;;;7.23;;
38865;SDS011;62686;48.984;8.394;2023-04-06T01:50:06;9.37;;;6.93;;
38865;SDS011;62686;48.984;8.394;2023-04-06T01:52:35;8.43;;;6.80;;
38865;SDS011;62686;48.984;8.394;2023-04-06T01:55:03;9.00;;;6.73;;
38865;SDS011;62686;48.984;8.394;2023-04-06T01:57:33;10.20;;;6.90;;
38865;SDS011;62686;48.984;8.394;2023-04-06T02:00:02;10.30;;;7.03;;
38865;SDS011;62686;48.984;8.394;2023-04-06T02:02:31;8.40;;;6.97;;
38865;SDS011;62686;48.984;8.394;2023-04-06T02:04:59;8.10;;;6.60;;
38865;SDS011;62686;48.984;8.394;2023-04-06T02:07:29;10.40;;;7.43;;
38865;SDS011;62686;48.984;8.394;2023-04-06T02:09:57;10.33;;;7.10;;
38865;SDS011;62686;48.984;8.394;2023-04-06T02:12:26;10.20;;;6.90;;
38865;SDS011;62686;48.984;8.394;2023-04-06T02:14:58;10.73;;;7.53;;
38865;SDS011;62686;48.984;8.394;2023-04-06T02:17:26;11.07;;;7.33;;
38865;SDS011;62686;48.984;8.394;2023-04-06T02:19:54;10.37;;;7.63;;
38865;SDS011;62686;48.984;8.394;2023-04-06T02:22:23;9.03;;;7.00;;
38865;SDS011;62686;48.984;8.394;2023-04-06T02:24:51;9.80;;;7.97;;
38865;SDS011;62686;48.984;8.394;2023-04-06T02:27:19;9.07;;;7.57;;
38865;SDS011;62686;48.984;8.394;2023-04-06T02:29:47;9.83;;;7.93;;
38865;SDS011;62686;48.984;8.394;2023-04-06T02:32:17;10.90;;;7.47;;
38865;SDS011;62686;48.984;8.394;2023-04-06T02:34:46;11.17;;;7.60;;
38865;SDS011;62686;48.984;8.394;2023-04-06T02:37:14;13.20;;;8.47;;
38865;SDS011;62686;48.984;8.394;2023-04-06T02:39:42;11.87;;;7.40;;
38865;SDS011;62686;48.984;8.394;2023-04-06T02:42:11;10.30;;;7.93;;
38865;SDS011;62686;48.984;8.394;2023-04-06T02:44:41;10.07;;;7.53;;
38865;SDS011;62686;48.984;8.394;2023-04-06T02:47:09;12.43;;;8.50;;
38865;SDS011;62686;48.984;8.394;2023-04-06T02:49:39;11.63;;;8.80;;
38865;SDS011;62686;48.984;8.394;2023-04-06T02:52:07;9.97;;;8.20;;
38865;SDS011;62686;48.984;8.394;2023-04-06T02:54:36;10.20;;;8.17;;
38865;SDS011;62686;48.984;8.394;2023-04-06T02:57:04;13.23;;;9.90;;
38865;SDS011;62686;48.984;8.394;2023-04-06T02:59:32;13.73;;;9.00;;
38865;SDS011;62686;48.984;8.394;2023-04-06T03:02:01;11.07;;;8.63;;
38865;SDS011;62686;48.984;8.394;2023-04-06T03:04:29;11.57;;;8.67;;
38865;SDS011;62686;48.984;8.394;2023-04-06T03:06:59;10.60;;;8.03;;
38865;SDS011;62686;48.984;8.394;2023-04-06T03:09:27;10.57;;;7.87;;
38865;SDS011;62686;48.984;8.394;2023-04-06T03:11:55;10.93;;;7.80;;
38865;SDS011;62686;48.984;8.394;2023-04-06T03:14:24;11.70;;;8.13;;
38865;SDS011;62686;48.984;8.394;2023-04-06T03:16:52;10.50;;;7.70;;
38865;SDS011;62686;48.984;8.394;2023-04-06T03:19:20;11.67;;;7.57;;
38865;SDS011;62686;48.984;8.394;2023-04-06T03:21:49;11.13;;;8.60;;
38865;SDS011;62686;48.984;8.394;2023-04-06T03:24:18;10.97;;;7.73;;
38865;SDS011;62686;48.984;8.394;2023-04-06T03:26:47;11.33;;;7.97;;
38865;SDS011;62686;48.984;8.394;2023-04-06T03:29:15;11.07;;;8.63;;
38865;SDS011;62686;48.984;8.394;2023-04-06T03:31:43;11.10;;;8.20;;
38865;SDS011;62686;48.984;8.394;2023-04-06T03:34:12;11.53;;;8.03;;
38865;SDS011;62686;48.984;8.394;2023-04-06T03:36:40;11.10;;;8.20;;
38865;SDS011;62686;48.984;8.394;2023-04-06T03:39:08;9.93;;;8.23;;
38865;SDS011;62686;48.984;8.394;2023-04-06T03:41:38;10.53;;;7.57;;
38865;SDS011;62686;48.984;8.394;2023-04-06T03:44:06;13.73;;;8.10;;
38865;SDS011;62686;48.984;8.394;2023-04-06T03:46:34;12.07;;;8.20;;
38865;SDS011;62686;48.984;8.394;2023-04-06T03:49:03;14.87;;;9.50;;
38865;SDS011;62686;48.984;8.394;2023-04-06T03:51:31;11.67;;;8.67;;
38865;SDS011;62686;48.984;8.394;2023-04-06T03:53:59;15.27;;;8.63;;
38865;SDS011;62686;48.984;8.394;2023-04-06T03:56:28;9.67;;;7.60;;
38865;SDS011;62686;48.984;8.394;2023-04-06T03:58:58;11.60;;;8.37;;
38865;SDS011;62686;48.984;8.394;2023-04-06T04:01:28;11.37;;;8.13;;
38865;SDS011;62686;48.984;8.394;2023-04-06T04:03:56;11.73;;;8.27;;
38865;SDS011;62686;48.984;8.394;2023-04-06T04:06:24;10.40;;;8.20;;
38865;SDS011;62686;48.984;8.394;2023-04-06T04:08:53;10.03;;;8.00;;
38865;SDS011;62686;48.984;8.394;2023-04-06T04:11:21;11.63;;;7.90;;
38865;SDS011;62686;48.984;8.394;2023-04-06T04:13:49;10.80;;;8.20;;
38865;SDS011;62686;48.984;8.394;2023-04-06T04:16:19;10.97;;;7.90;;
38865;SDS011;62686;48.984;8.394;2023-04-06T04:18:48;9.43;;;7.60;;
38865;SDS011;62686;48.984;8.394;2023-04-06T04:21:16;11.80;;;8.03;;
38865;SDS011;62686;48.984;8.394;2023-04-06T04:23:44;10.47;;;8.13;;
38865;SDS011;62686;48.984;8.394;2023-04-06T04:26:12;9.47;;;8.27;;
38865;SDS011;62686;48.984;8.394;2023-04-06T04:28:41;12.77;;;9.00;;
38865;SDS011;62686;48.984;8.394;2023-04-06T04:31:09;13.53;;;8.03;;
38865;SDS011;62686;48.984;8.394;2023-04-06T04:33:39;10.23;;;8.40;;
38865;SDS011;62686;48.984;8.394;2023-04-06T04:36:07;12.43;;;7.70;;
38865;SDS011;62686;48.984;8.394;2023-04-06T04:38:36;13.13;;;8.30;;
38865;SDS011;62686;48.984;8.394;2023-04-06T04:41:04;14.83;;;7.93;;
38865;SDS011;62686;48.984;8.394;2023-04-06T04:43:33;13.63;;;9.20;;
38865;SDS011;62686;48.984;8.394;2023-04-06T04:46:01;12.50;;;8.40;;
38865;SDS011;62686;48.984;8.394;2023-04-06T04:48:30;10.70;;;8.00;;
38865;SDS011;62686;48.984;8.394;2023-04-06T04:51:01;12.67;;;8.37;;
38865;SDS011;62686;48.984;8.394;2023-04-06T04:53:33;12.57;;;7.83;;
38865;SDS011;62686;48.984;8.394;2023-04-06T04:56:01;10.20;;;8.07;;
38865;SDS011;62686;48.984;8.394;2023-04-06T04:58:30;10.97;;;8.43;;
38865;SDS011;62686;48.984;8.394;2023-04-06T05:00:58;12.27;;;8.40;;
38865;SDS011;62686;48.984;8.394;2023-04-06T05:03:29;12.93;;;9.13;;
38865;SDS011;62686;48.984;8.394;2023-04-06T05:05:57;11.17;;;8.43;;
38865;SDS011;62686;48.984;8.394;2023-04-06T05:08:27;9.50;;;8.13;;
38865;SDS011;62686;48.984;8.394;2023-04-06T05:10:58;13.67;;;9.13;;
38865;SDS011;62686;48.984;8.394;2023-04-06T05:13:27;10.60;;;8.20;;
38865;SDS011;62686;48.984;8.394;2023-04-06T05:15:57;11.60;;;8.80;;
38865;SDS011;62686;48.984;8.394;2023-04-06T05:18:25;10.20;;;8.57;;
38865;SDS011;62686;48.984;8.394;2023-04-06T05:20:55;13.63;;;8.97;;
38865;SDS011;62686;48.984;8.394;2023-04-06T05:23:36;12.10;;;8.53;;
38865;SDS011;62686;48.984;8.394;2023-04-06T05:26:04;13.63;;;8.47;;
38865;SDS011;62686;48.984;8.394;2023-04-06T05:28:40;13.23;;;8.70;;
38865;SDS011;62686;48.984;8.394;2023-04-06T05:31:12;11.63;;;9.50;;
38865;SDS011;62686;48.984;8.394;2023-04-06T05:36:19;11.50;;;9.80;;
38865;SDS011;62686;48.984;8.394;2023-04-06T05:38:54;12.10;;;9.50;;
38865;SDS011;62686;48.984;8.394;2023-04-06T05:44:13;10.57;;;8.43;;
38865;SDS011;62686;48.984;8.394;2023-04-06T05:49:24;15.20;;;10.03;;
38865;SDS011;62686;48.984;8.394;2023-04-06T05:51:53;17.73;;;9.23;;
38865;SDS011;62686;48.984;8.394;2023-04-06T05:54:23;12.90;;;9.50;;
38865;SDS011;62686;48.984;8.394;2023-04-06T05:56:54;10.90;;;9.53;;
38865;SDS011;62686;48.984;8.394;2023-04-06T05:59:23;10.47;;;8.83;;
38865;SDS011;62686;48.984;8.394;2023-04-06T06:01:51;11.23;;;8.60;;
38865;SDS011;62686;48.984;8.394;2023-04-06T06:04:21;10.00;;;8.10;;
38865;SDS011;62686;48.984;8.394;2023-04-06T06:06:51;13.83;;;8.93;;
38865;SDS011;62686;48.984;8.394;2023-04-06T06:09:19;12.40;;;9.40;;
38865;SDS011;62686;48.984;8.394;2023-04-06T06:11:49;15.60;;;10.07;;
38865;SDS011;62686;48.984;8.394;2023-04-06T06:14:20;11.43;;;8.57;;
38865;SDS011;62686;48.984;8.394;2023-04-06T06:16:49;11.23;;;8.23;;
38865;SDS011;62686;48.984;8.394;2023-04-06T06:19:17;10.47;;;7.87;;
38865;SDS011;62686;48.984;8.394;2023-04-06T06:21:45;9.27;;;7.43;;
38865;SDS011;62686;48.984;8.394;2023-04-06T06:24:14;8.87;;;7.10;;
38865;SDS011;62686;48.984;8.394;2023-04-06T06:26:42;10.73;;;6.77;;
38865;SDS011;62686;48.984;8.394;2023-04-06T06:29:12;8.87;;;6.20;;
38865;SDS011;62686;48.984;8.394;2023-04-06T06:31:41;7.77;;;5.73;;
38865;SDS011;62686;48.984;8.394;2023-04-06T06:34:23;7.63;;;5.37;;
38865;SDS011;62686;48.984;8.394;2023-04-06T06:36:53;6.93;;;4.93;;
38865;SDS011;62686;48.984;8.394;2023-04-06T06:39:24;8.20;;;4.93;;
38865;SDS011;62686;48.984;8.394;2023-04-06T06:41:53;7.10;;;4.93;;
38865;SDS011;62686;48.984;8.394;2023-04-06T06:44:23;6.43;;;4.27;;
38865;SDS011;62686;48.984;8.394;2023-04-06T06:46:59;8.93;;;4.50;;
38865;SDS011;62686;48.984;8.394;2023-04-06T06:49:27;5.47;;;3.63;;
38865;SDS011;62686;48.984;8.394;2023-04-06T06:51:55;6.17;;;3.30;;
38865;SDS011;62686;48.984;8.394;2023-04-06T06:54:23;5.47;;;3.83;;
38865;SDS011;62686;48.984;8.394;2023-04-06T06:56:52;7.35;;;3.95;;
38865;SDS011;62686;48.984;8.394;2023-04-06T06:59:20;6.03;;;3.80;;
38865;SDS011;62686;48.984;8.394;2023-04-06T07:01:50;7.03;;;3.92;;
38865;SDS011;62686;48.984;8.394;2023-04-06T07:04:19;6.70;;;3.80;;
38865;SDS011;62686;48.984;8.394;2023-04-06T07:06:47;7.18;;;3.55;;
38865;SDS011;62686;48.984;8.394;2023-04-06T07:09:16;4.97;;;3.60;;
38865;SDS011;62686;48.984;8.394;2023-04-06T07:11:45;6.07;;;3.95;;
38865;SDS011;62686;48.984;8.394;2023-04-06T07:14:14;7.55;;;3.72;;
38865;SDS011;62686;48.984;8.394;2023-04-06T07:16:45;5.13;;;3.30;;
38865;SDS011;62686;48.984;8.394;2023-04-06T07:19:15;4.80;;;3.42;;
38865;SDS011;62686;48.984;8.394;2023-04-06T07:21:43;5.65;;;3.70;;
38865;SDS011;62686;48.984;8.394;2023-04-06T07:24:12;7.13;;;3.72;;
38865;SDS011;62686;48.984;8.394;2023-04-06T07:26:40;8.98;;;3.28;;
38865;SDS011;62686;48.984;8.394;2023-04-06T07:29:09;6.30;;;3.72;;
38865;SDS011;62686;48.984;8.394;2023-04-06T07:31:39;6.93;;;3.88;;
38865;SDS011;62686;48.984;8.394;2023-04-06T07:34:08;6.18;;;3.60;;
38865;SDS011;62686;48.984;8.394;2023-04-06T07:36:37;6.03;;;3.80;;
38865;SDS011;62686;48.984;8.394;2023-04-06T07:39:06;7.18;;;3.63;;
38865;SDS011;62686;48.984;8.394;2023-04-06T07:41:35;4.55;;;3.05;;
38865;SDS011;62686;48.984;8.394;2023-04-06T07:44:04;6.85;;;3.40;;
38865;SDS011;62686;48.984;8.394;2023-04-06T07:46:35;6.10;;;3.92;;
38865;SDS011;62686;48.984;8.394;2023-04-06T07:49:06;5.78;;;3.47;;
38865;SDS011;62686;48.984;8.394;2023-04-06T07:51:37;4.65;;;3.70;;
38865;SDS011;62686;48.984;8.394;2023-04-06T07:54:05;5.00;;;3.40;;
38865;SDS011;62686;48.984;8.394;2023-04-06T07:56:34;4.28;;;3.40;;
38865;SDS011;62686;48.984;8.394;2023-04-06T07:59:02;4.57;;;3.67;;
38865;SDS011;62686;48.984;8.394;2023-04-06T08:01:30;4.95;;;3.60;;
38865;SDS011;62686;48.984;8.394;2023-04-06T08:03:59;4.47;;;3.20;;
38865;SDS011;62686;48.984;8.394;2023-04-06T08:06:29;6.25;;;3.17;;
38865;SDS011;62686;48.984;8.394;2023-04-06T08:08:59;5.45;;;2.90;;
38865;SDS011;62686;48.984;8.394;2023-04-06T08:11:28;4.95;;;3.10;;
38865;SDS011;62686;48.984;8.394;2023-04-06T08:13:57;7.60;;;3.60;;
38865;SDS011;62686;48.984;8.394;2023-04-06T08:16:25;4.68;;;3.38;;
38865;SDS011;62686;48.984;8.394;2023-04-06T08:18:53;4.65;;;2.67;;
38865;SDS011;62686;48.984;8.394;2023-04-06T08:21:22;6.32;;;3.60;;
38865;SDS011;62686;48.984;8.394;2023-04-06T08:23:50;4.75;;;3.50;;
38865;SDS011;62686;48.984;8.394;2023-04-06T08:26:20;4.18;;;3.10;;
38865;SDS011;62686;48.984;8.394;2023-04-06T08:28:48;4.57;;;3.40;;
38865;SDS011;62686;48.984;8.394;2023-04-06T08:31:16;3.83;;;3.22;;
38865;SDS011;62686;48.984;8.394;2023-04-06T08:33:45;5.70;;;3.70;;
38865;SDS011;62686;48.984;8.394;2023-04-06T08:36:24;4.78;;;3.38;;
38865;SDS011;62686;48.984;8.394;2023-04-06T08:38:56;6.68;;;3.22;;
38865;SDS011;62686;48.984;8.394;2023-04-06T08:41:28;5.18;;;3.28;;
38865;SDS011;62686;48.984;8.394;2023-04-06T08:43:57;4.53;;;3.40;;
38865;SDS011;62686;48.984;8.394;2023-04-06T08:46:28;4.25;;;3.03;;
38865;SDS011;62686;48.984;8.394;2023-04-06T08:48:57;5.35;;;3.75;;
38865;SDS011;62686;48.984;8.394;2023-04-06T08:51:27;4.88;;;3.42;;
38865;SDS011;62686;48.984;8.394;2023-04-06T08:53:57;5.40;;;3.20;;
38865;SDS011;62686;48.984;8.394;2023-04-06T08:56:30;4.40;;;3.30;;
38865;SDS011;62686;48.984;8.394;2023-04-06T08:58:59;7.25;;;4.63;;
38865;SDS011;62686;48.984;8.394;2023-04-06T09:01:28;5.43;;;3.63;;
38865;SDS011;62686;48.984;8.394;2023-04-06T09:03:58;8.63;;;3.65;;
38865;SDS011;62686;48.984;8.394;2023-04-06T09:06:27;8.38;;;3.25;;
38865;SDS011;62686;48.984;8.394;2023-04-06T09:08:57;4.97;;;3.50;;
38865;SDS011;62686;48.984;8.394;2023-04-06T09:11:25;4.72;;;3.60;;
38865;SDS011;62686;48.984;8.394;2023-04-06T09:13:55;6.53;;;3.80;;
38865;SDS011;62686;48.984;8.394;2023-04-06T09:16:24;6.22;;;3.90;;
38865;SDS011;62686;48.984;8.394;2023-04-06T09:18:53;5.63;;;4.05;;
38865;SDS011;62686;48.984;8.394;2023-04-06T09:21:22;5.18;;;4.00;;
38865;SDS011;62686;48.984;8.394;2023-04-06T09:23:58;6.13;;;3.85;;
38865;SDS011;62686;48.984;8.394;2023-04-06T09:26:27;4.30;;;3.90;;
38865;SDS011;62686;48.984;8.394;2023-04-06T09:28:57;7.10;;;4.40;;
38865;SDS011;62686;48.984;8.394;2023-04-06T09:31:30;5.60;;;3.90;;
38865;SDS011;62686;48.984;8.394;2023-04-06T09:34:20;5.68;;;3.80;;
38865;SDS011;62686;48.984;8.394;2023-04-06T09:36:52;5.80;;;3.70;;
38865;SDS011;62686;48.984;8.394;2023-04-06T09:39:21;6.47;;;4.78;;
38865;SDS011;62686;48.984;8.394;2023-04-06T09:41:51;7.07;;;5.00;;
38865;SDS011;62686;48.984;8.394;2023-04-06T09:44:24;5.45;;;4.70;;
38865;SDS011;62686;48.984;8.394;2023-04-06T09:46:53;5.70;;;5.07;;
38865;SDS011;62686;48.984;8.394;2023-04-06T09:49:26;8.52;;;4.70;;
38865;SDS011;62686;48.984;8.394;2023-04-06T09:51:56;9.32;;;5.22;;
38865;SDS011;62686;48.984;8.394;2023-04-06T09:54:28;8.68;;;5.18;;
38865;SDS011;62686;48.984;8.394;2023-04-06T09:56:58;6.75;;;5.40;;
38865;SDS011;62686;48.984;8.394;2023-04-06T09:59:36;10.48;;;5.32;;
38865;SDS011;62686;48.984;8.394;2023-04-06T10:02:13;8.63;;;5.43;;
38865;SDS011;62686;48.984;8.394;2023-04-06T10:04:47;6.72;;;5.05;;
38865;SDS011;62686;48.984;8.394;2023-04-06T10:07:21;7.07;;;5.47;;
38865;SDS011;62686;48.984;8.394;2023-04-06T10:09:50;7.75;;;5.75;;
38865;SDS011;62686;48.984;8.394;2023-04-06T10:12:21;6.55;;;5.13;;
38865;SDS011;62686;48.984;8.394;2023-04-06T10:14:50;8.35;;;5.32;;
38865;SDS011;62686;48.984;8.394;2023-04-06T10:17:19;6.90;;;5.10;;
38865;SDS011;62686;48.984;8.394;2023-04-06T10:19:51;6.80;;;5.10;;
38865;SDS011;62686;48.984;8.394;2023-04-06T10:22:24;7.75;;;5.90;;
38865;SDS011;62686;48.984;8.394;2023-04-06T10:24:57;8.30;;;5.60;;
38865;SDS011;62686;48.984;8.394;2023-04-06T10:27:27;6.32;;;5.65;;
38865;SDS011;62686;48.984;8.394;2023-04-06T10:30:02;9.45;;;5.55;;
38865;SDS011;62686;48.984;8.394;2023-04-06T10:32:32;11.13;;;5.95;;
38865;SDS011;62686;48.984;8.394;2023-04-06T10:35:05;5.93;;;5.25;;
38865;SDS011;62686;48.984;8.394;2023-04-06T10:37:47;7.50;;;5.68;;
38865;SDS011;62686;48.984;8.394;2023-04-06T10:40:23;9.18;;;5.80;;
38865;SDS011;62686;48.984;8.394;2023-04-06T10:42:52;8.25;;;5.57;;
38865;SDS011;62686;48.984;8.394;2023-04-06T10:45:24;6.93;;;5.78;;
38865;SDS011;62686;48.984;8.394;2023-04-06T10:47:53;11.13;;;5.53;;
38865;SDS011;62686;48.984;8.394;2023-04-06T10:50:22;9.35;;;5.68;;
38865;SDS011;62686;48.984;8.394;2023-04-06T10:53:00;7.53;;;5.65;;
38865;SDS011;62686;48.984;8.394;2023-04-06T10:55:30;7.15;;;5.65;;
38865;SDS011;62686;48.984;8.394;2023-04-06T10:57:59;8.27;;;5.82;;
38865;SDS011;62686;48.984;8.394;2023-04-06T11:00:29;9.05;;;5.75;;
38865;SDS011;62686;48.984;8.394;2023-04-06T11:03:04;7.65;;;5.07;;
38865;SDS011;62686;48.984;8.394;2023-04-06T11:05:33;8.23;;;5.57;;
38865;SDS011;62686;48.984;8.394;2023-04-06T11:08:02;7.10;;;5.60;;
38865;SDS011;62686;48.984;8.394;2023-04-06T11:10:31;5.38;;;4.78;;
38865;SDS011;62686;48.984;8.394;2023-04-06T11:12:59;8.45;;;5.45;;
38865;SDS011;62686;48.984;8.394;2023-04-06T11:15:34;6.57;;;4.95;;
38865;SDS011;62686;48.984;8.394;2023-04-06T11:18:04;9.65;;;5.50;;
38865;SDS011;62686;48.984;8.394;2023-04-06T11:20:32;7.18;;;5.50;;
38865;SDS011;62686;48.984;8.394;2023-04-06T11:23:01;5.13;;;4.53;;
38865;SDS011;62686;48.984;8.394;2023-04-06T11:25:30;7.65;;;5.40;;
38865;SDS011;62686;48.984;8.394;2023-04-06T11:27:59;8.85;;;5.40;;
38865;SDS011;62686;48.984;8.394;2023-04-06T11:30:27;8.23;;;5.47;;
38865;SDS011;62686;48.984;8.394;2023-04-06T11:33:00;7.07;;;5.10;;
38865;SDS011;62686;48.984;8.394;2023-04-06T11:35:29;7.00;;;5.13;;
38865;SDS011;62686;48.984;8.394;2023-04-06T11:38:02;7.60;;;5.40;;
38865;SDS011;62686;48.984;8.394;2023-04-06T11:40:31;6.45;;;4.70;;
38865;SDS011;62686;48.984;8.394;2023-04-06T11:42:59;7.40;;;4.72;;
38865;SDS011;62686;48.984;8.394;2023-04-06T11:45:28;7.55;;;5.55;;
38865;SDS011;62686;48.984;8.394;2023-04-06T11:48:17;6.03;;;5.18;;
38865;SDS011;62686;48.984;8.394;2023-04-06T11:50:46;7.20;;;5.00;;
38865;SDS011;62686;48.984;8.394;2023-04-06T11:53:15;7.35;;;5.22;;
38865;SDS011;62686;48.984;8.394;2023-04-06T11:55:44;6.70;;;5.05;;
38865;SDS011;62686;48.984;8.394;2023-04-06T11:58:13;6.30;;;5.35;;
38865;SDS011;62686;48.984;8.394;2023-04-06T12:00:43;7.53;;;5.00;;
38865;SDS011;62686;48.984;8.394;2023-04-06T12:03:14;7.28;;;4.90;;
38865;SDS011;62686;48.984;8.394;2023-04-06T12:05:43;7.10;;;4.80;;
38865;SDS011;62686;48.984;8.394;2023-04-06T12:08:12;5.60;;;5.00;;
38865;SDS011;62686;48.984;8.394;2023-04-06T12:10:40;5.35;;;4.85;;
38865;SDS011;62686;48.984;8.394;2023-04-06T12:13:09;9.20;;;5.55;;
38865;SDS011;62686;48.984;8.394;2023-04-06T12:15:37;6.05;;;5.25;;
38865;SDS011;62686;48.984;8.394;2023-04-06T12:18:05;6.85;;;4.80;;
38865;SDS011;62686;48.984;8.394;2023-04-06T12:20:35;6.70;;;4.88;;
38865;SDS011;62686;48.984;8.394;2023-04-06T12:23:04;5.72;;;4.43;;
38865;SDS011;62686;48.984;8.394;2023-04-06T12:25:32;6.72;;;4.53;;
38865;SDS011;62686;48.984;8.394;2023-04-06T12:28:00;6.25;;;5.07;;
38865;SDS011;62686;48.984;8.394;2023-04-06T12:30:29;6.13;;;5.10;;
38865;SDS011;62686;48.984;8.394;2023-04-06T12:32:58;5.75;;;4.80;;
38865;SDS011;62686;48.984;8.394;2023-04-06T12:35:27;5.78;;;4.53;;
38865;SDS011;62686;48.984;8.394;2023-04-06T12:37:56;6.80;;;5.32;;
38865;SDS011;62686;48.984;8.394;2023-04-06T12:40:25;5.97;;;4.50;;
38865;SDS011;62686;48.984;8.394;2023-04-06T12:42:53;5.00;;;4.50;;
38865;SDS011;62686;48.984;8.394;2023-04-06T12:45:22;7.50;;;4.70;;
38865;SDS011;62686;48.984;8.394;2023-04-06T12:47:50;7.13;;;5.30;;
38865;SDS011;62686;48.984;8.394;2023-04-06T12:50:19;5.13;;;4.20;;
38865;SDS011;62686;48.984;8.394;2023-04-06T12:52:47;6.22;;;4.80;;
38865;SDS011;62686;48.984;8.394;2023-04-06T12:55:17;7.90;;;5.30;;
38865;SDS011;62686;48.984;8.394;2023-04-06T12:57:47;6.60;;;4.78;;
38865;SDS011;62686;48.984;8.394;2023-04-06T13:00:15;9.18;;;4.95;;
38865;SDS011;62686;48.984;8.394;2023-04-06T13:02:44;11.70;;;5.28;;
38865;SDS011;62686;48.984;8.394;2023-04-06T13:05:13;6.30;;;4.80;;
38865;SDS011;62686;48.984;8.394;2023-04-06T13:07:45;8.02;;;5.18;;
38865;SDS011;62686;48.984;8.394;2023-04-06T13:10:14;6.75;;;4.93;;
38865;SDS011;62686;48.984;8.394;2023-04-06T13:12:43;6.60;;;4.93;;
38865;SDS011;62686;48.984;8.394;2023-04-06T13:15:12;8.02;;;7.03;;
38865;SDS011;62686;48.984;8.394;2023-04-06T13:17:41;4.85;;;4.35;;
38865;SDS011;62686;48.984;8.394;2023-04-06T13:20:10;6.35;;;4.72;;
38865;SDS011;62686;48.984;8.394;2023-04-06T13:22:39;8.98;;;5.20;;
38865;SDS011;62686;48.984;8.394;2023-04-06T13:25:08;5.80;;;4.68;;
38865;SDS011;62686;48.984;8.394;2023-04-06T13:27:36;5.57;;;4.20;;
38865;SDS011;62686;48.984;8.394;2023-04-06T13:30:07;6.85;;;4.20;;
38865;SDS011;62686;48.984;8.394;2023-04-06T13:32:36;6.00;;;4.15;;
38865;SDS011;62686;48.984;8.394;2023-04-06T13:35:05;5.78;;;3.67;;
38865;SDS011;62686;48.984;8.394;2023-04-06T13:37:34;5.47;;;4.22;;
38865;SDS011;62686;48.984;8.394;2023-04-06T13:40:03;5.78;;;4.30;;
38865;SDS011;62686;48.984;8.394;2023-04-06T13:42:32;6.65;;;4.60;;
38865;SDS011;62686;48.984;8.394;2023-04-06T13:45:01;5.20;;;4.55;;
38865;SDS011;62686;48.984;8.394;2023-04-06T13:47:32;5.93;;;4.25;;
38865;SDS011;62686;48.984;8.394;2023-04-06T13:50:00;4.60;;;4.15;;
38865;SDS011;62686;48.984;8.394;2023-04-06T13:52:29;5.47;;;3.92;;
38865;SDS011;62686;48.984;8.394;2023-04-06T13:54:58;5.63;;;4.30;;
38865;SDS011;62686;48.984;8.394;2023-04-06T13:57:26;4.75;;;4.10;;
38865;SDS011;62686;48.984;8.394;2023-04-06T13:59:56;4.70;;;3.75;;
38865;SDS011;62686;48.984;8.394;2023-04-06T14:02:24;5.85;;;4.53;;
38865;SDS011;62686;48.984;8.394;2023-04-06T14:04:55;5.03;;;4.53;;
38865;SDS011;62686;48.984;8.394;2023-04-06T14:07:23;6.53;;;4.43;;
38865;SDS011;62686;48.984;8.394;2023-04-06T14:09:51;5.93;;;4.60;;
38865;SDS011;62686;48.984;8.394;2023-04-06T14:12:19;5.53;;;4.20;;
38865;SDS011;62686;48.984;8.394;2023-04-06T14:14:48;8.00;;;4.25;;
38865;SDS011;62686;48.984;8.394;2023-04-06T14:17:16;5.45;;;4.53;;
38865;SDS011;62686;48.984;8.394;2023-04-06T14:19:44;10.30;;;4.68;;
38865;SDS011;62686;48.984;8.394;2023-04-06T14:22:14;5.82;;;4.50;;
38865;SDS011;62686;48.984;8.394;2023-04-06T14:24:42;7.60;;;4.63;;
38865;SDS011;62686;48.984;8.394;2023-04-06T14:27:11;5.75;;;4.68;;
38865;SDS011;62686;48.984;8.394;2023-04-06T14:29:40;6.15;;;4.90;;
38865;SDS011;62686;48.984;8.394;2023-04-06T14:32:08;6.53;;;4.85;;
38865;SDS011;62686;48.984;8.394;2023-04-06T14:34:37;7.30;;;5.45;;
38865;SDS011;62686;48.984;8.394;2023-04-06T14:37:06;6.43;;;5.53;;
38865;SDS011;62686;48.984;8.394;2023-04-06T14:39:35;5.85;;;4.85;;
38865;SDS011;62686;48.984;8.394;2023-04-06T14:42:04;7.55;;;5.55;;
38865;SDS011;62686;48.984;8.394;2023-04-06T14:44:32;7.57;;;4.50;;
38865;SDS011;62686;48.984;8.394;2023-04-06T14:47:03;6.15;;;5.07;;
38865;SDS011;62686;48.984;8.394;2023-04-06T14:49:31;6.18;;;4.80;;
38865;SDS011;62686;48.984;8.394;2023-04-06T14:52:00;10.50;;;4.82;;
38865;SDS011;62686;48.984;8.394;2023-04-06T14:54:28;7.35;;;4.68;;
38865;SDS011;62686;48.984;8.394;2023-04-06T14:56:58;8.95;;;5.47;;
38865;SDS011;62686;48.984;8.394;2023-04-06T14:59:26;14.40;;;10.50;;
38865;SDS011;62686;48.984;8.394;2023-04-06T15:01:55;8.00;;;5.00;;
38865;SDS011;62686;48.984;8.394;2023-04-06T15:04:24;9.68;;;5.45;;